Townhill, United Kingdom
Current Conditions -  °F | °C
As of 2:20 PM on Sunday 25 Jan 2015 (Local Time) from EGPH Reporting Station
Broken Clouds Broken Clouds  
Wind Chill: 41°   Ceiling: 1200
Heat Index: 48°   Visibility: 6mi
Dew Point: 46°   Wind: 22mph
Humidity: 93%   Direction: 240°WSW
Pressure: 30.03"   Gusts: 33mph
Location:  56.08°N, 3.43°W
Report Text: EGPH 251420Z 24019G29KT 9999 BKN012 09/08 Q1017
Loading
Personal Weather Stations






























Interactive Weather Map New forecast layout! Learn more

10-Day Weather Forecast

Advertisements
Track Severe Weather on mobile